Time;durP1;ratioP1;P1;durP2;ratioP2;P2;SDS_P1;SDS_P2;PMS_P1;PMS_P2;Temp;Humidity;BMP_temperature;BMP_pressure;BME280_temperature;BME280_humidity;BME280_pressure;Samples;Min_cycle;Max_cycle;Signal;HPM_P1;HPM_P2
2022/07/02 04:01:55;;;;;;;12.90;7.45;;;13.00;99.90;;;;;;6249506;22;20060;-81
2022/07/02 04:04:21;;;;;;;12.63;8.02;;;13.00;99.90;;;;;;6252119;22;20119;-82
2022/07/02 04:06:47;;;;;;;10.90;7.85;;;13.10;99.90;;;;;;6251970;22;20012;-81
2022/07/02 04:09:13;;;;;;;12.18;7.55;;;13.10;99.90;;;;;;6251648;22;20018;-84
2022/07/02 04:11:39;;;;;;;13.10;8.25;;;13.00;99.90;;;;;;6279444;22;20012;-82
2022/07/02 04:14:05;;;;;;;11.88;8.32;;;13.10;99.90;;;;;;6279324;22;20035;-82
2022/07/02 04:16:31;;;;;;;16.45;8.57;;;13.10;99.90;;;;;;6279411;22;20480;-82
2022/07/02 04:18:57;;;;;;;14.48;9.40;;;13.10;99.90;;;;;;6279386;22;20366;-81
2022/07/02 04:21:22;;;;;;;13.32;8.45;;;13.10;99.90;;;;;;6279223;22;20008;-82
2022/07/02 04:23:48;;;;;;;15.00;8.70;;;13.10;99.90;;;;;;6226583;22;20115;-82
2022/07/02 04:26:13;;;;;;;14.27;8.90;;;13.10;99.90;;;;;;6279176;22;20545;-83
2022/07/02 04:28:39;;;;;;;15.07;8.50;;;13.20;99.90;;;;;;6251875;22;20012;-81
2022/07/02 04:31:05;;;;;;;11.95;8.43;;;13.20;99.90;;;;;;6251500;22;20340;-81
2022/07/02 04:33:30;;;;;;;15.07;8.13;;;13.20;99.90;;;;;;6278708;22;20105;-82
2022/07/02 04:35:56;;;;;;;14.90;9.10;;;13.20;99.90;;;;;;6279317;22;20010;-84
2022/07/02 04:38:22;;;;;;;12.07;9.48;;;13.20;99.90;;;;;;6251353;22;20495;-83
2022/07/02 04:40:48;;;;;;;10.85;8.00;;;13.20;99.90;;;;;;6251816;22;20015;-82
2022/07/02 04:43:13;;;;;;;12.18;8.32;;;13.20;99.90;;;;;;6251971;22;20079;-81
2022/07/02 04:45:39;;;;;;;13.55;8.90;;;13.30;99.90;;;;;;6226936;22;20015;-83
2022/07/02 04:48:04;;;;;;;11.88;8.30;;;13.30;99.90;;;;;;6252824;22;20349;-85
2022/07/02 04:50:30;;;;;;;14.48;8.73;;;13.30;99.90;;;;;;6285015;22;20026;-79
2022/07/02 04:52:56;;;;;;;15.05;8.40;;;13.30;99.90;;;;;;6284390;22;20015;-82
2022/07/02 04:55:22;;;;;;;13.13;8.02;;;13.30;99.90;;;;;;6279416;22;20018;-84
2022/07/02 04:57:47;;;;;;;15.10;8.57;;;13.40;99.90;;;;;;6280299;22;20031;-83
2022/07/02 05:00:13;;;;;;;16.90;7.22;;;13.40;99.90;;;;;;6252206;22;20011;-83
2022/07/02 05:02:39;;;;;;;12.23;7.57;;;13.40;99.90;;;;;;6278790;22;20007;-84
2022/07/02 05:05:05;;;;;;;17.42;7.80;;;13.50;99.90;;;;;;6252176;22;20022;-83
2022/07/02 05:07:31;;;;;;;11.63;7.43;;;13.50;99.90;;;;;;6250785;22;20087;-83
2022/07/02 05:09:59;;;;;;;14.48;7.50;;;13.60;99.90;;;;;;6251841;22;20492;-83
2022/07/02 05:12:25;;;;;;;13.02;7.10;;;13.60;99.90;;;;;;6251303;22;20022;-83
2022/07/02 05:14:51;;;;;;;11.63;7.25;;;13.60;99.90;;;;;;6276820;22;20037;-81
2022/07/02 05:17:17;;;;;;;12.88;6.57;;;13.70;99.90;;;;;;6251385;22;20016;-82
2022/07/02 05:19:44;;;;;;;11.05;5.90;;;13.80;99.90;;;;;;6278647;22;20091;-83
2022/07/02 05:22:10;;;;;;;7.88;5.82;;;13.80;99.90;;;;;;6226025;22;20065;-83
2022/07/02 05:24:35;;;;;;;11.63;5.90;;;13.90;99.90;;;;;;6278832;22;20007;-82
2022/07/02 05:27:01;;;;;;;11.48;5.18;;;14.00;99.90;;;;;;6251406;22;20008;-82
2022/07/02 05:29:26;;;;;;;9.15;5.28;;;14.00;99.90;;;;;;6279585;22;20027;-83
2022/07/02 05:31:52;;;;;;;10.65;5.22;;;14.10;99.90;;;;;;6278242;22;20075;-84
2022/07/02 05:34:18;;;;;;;11.02;5.10;;;14.20;99.90;;;;;;6278421;22;20425;-83
2022/07/02 05:36:44;;;;;;;13.25;5.55;;;14.30;99.90;;;;;;6250500;22;20342;-81
2022/07/02 05:39:09;;;;;;;10.63;4.80;;;14.40;99.90;;;;;;6277611;22;20525;-83
2022/07/02 05:41:35;;;;;;;9.45;4.50;;;14.40;99.90;;;;;;6250492;22;20015;-84
2022/07/02 05:44:01;;;;;;;8.80;4.38;;;14.50;99.90;;;;;;6251584;22;20018;-84
2022/07/02 05:46:26;;;;;;;7.82;4.45;;;14.50;99.90;;;;;;6252256;22;20008;-82
2022/07/02 05:48:52;;;;;;;11.52;4.40;;;14.60;99.90;;;;;;6250724;22;20097;-83
2022/07/02 05:51:17;;;;;;;6.32;3.80;;;14.60;99.90;;;;;;6251362;22;20437;-82
2022/07/02 05:53:43;;;;;;;8.10;3.95;;;14.70;99.90;;;;;;6278755;22;20008;-83
2022/07/02 05:56:09;;;;;;;7.72;4.10;;;14.80;99.90;;;;;;6278085;22;20008;-85
2022/07/02 05:58:34;;;;;;;10.55;4.22;;;14.80;99.90;;;;;;6278520;22;20168;-79
2022/07/02 06:01:00;;;;;;;5.72;3.40;;;14.90;99.90;;;;;;6257237;22;20004;-82
2022/07/02 06:03:25;;;;;;;8.82;3.60;;;14.90;99.90;;;;;;6279415;22;20019;-80
2022/07/02 06:08:35;;;;;;;7.97;3.40;;;15.10;99.90;;;;;;6283247;22;20019;-83
2022/07/02 06:11:01;;;;;;;9.00;3.88;;;15.10;99.90;;;;;;6282881;22;20050;-84
2022/07/02 06:13:26;;;;;;;7.70;3.38;;;15.20;99.90;;;;;;6282853;22;20482;-83
2022/07/02 06:15:52;;;;;;;8.50;4.15;;;15.20;99.90;;;;;;6280140;22;20018;-83
2022/07/02 06:18:17;;;;;;;8.25;3.47;;;15.20;99.90;;;;;;6281090;22;20398;-86
2022/07/02 06:20:43;;;;;;;7.38;3.60;;;15.30;99.90;;;;;;6281740;22;20020;-85
2022/07/02 06:23:09;;;;;;;6.65;3.25;;;15.40;99.90;;;;;;6282126;22;20042;-86
2022/07/02 06:25:34;;;;;;;7.22;2.90;;;15.40;99.90;;;;;;6279972;22;20040;-81
2022/07/02 06:28:00;;;;;;;7.68;3.50;;;15.40;99.90;;;;;;6280835;22;20037;-84
2022/07/02 06:30:26;;;;;;;7.22;3.30;;;15.50;99.90;;;;;;6279565;22;20071;-86
2022/07/02 06:32:51;;;;;;;6.72;2.97;;;15.50;99.90;;;;;;6279167;22;20452;-86
2022/07/02 06:35:17;;;;;;;8.20;3.00;;;15.60;99.90;;;;;;6281752;22;20008;-86
2022/07/02 06:37:43;;;;;;;4.60;2.67;;;15.60;99.90;;;;;;6255117;22;20057;-86
2022/07/02 06:40:09;;;;;;;9.20;3.45;;;15.70;99.90;;;;;;6280510;22;20461;-89
2022/07/02 06:42:35;;;;;;;8.55;3.08;;;15.70;99.90;;;;;;6278513;22;20066;-87
2022/07/02 06:45:01;;;;;;;8.30;3.15;;;15.70;99.90;;;;;;6281017;22;20008;-81
2022/07/02 06:47:28;;;;;;;7.63;2.75;;;15.80;99.90;;;;;;6281115;22;20012;-84
2022/07/02 06:49:55;;;;;;;9.48;3.40;;;15.80;99.90;;;;;;6277571;22;20016;-86
2022/07/02 06:52:21;;;;;;;7.13;3.03;;;15.80;99.90;;;;;;6280256;22;20008;-85
2022/07/02 06:54:47;;;;;;;10.60;3.75;;;15.90;99.90;;;;;;6280505;22;20071;-83
2022/07/02 06:57:13;;;;;;;11.75;3.35;;;16.00;99.90;;;;;;6281502;22;20008;-85
2022/07/02 06:59:39;;;;;;;10.02;3.42;;;16.00;99.90;;;;;;6277668;22;20012;-86
2022/07/02 07:02:06;;;;;;;9.52;3.22;;;16.10;99.90;;;;;;6279957;22;20023;-85
2022/07/02 07:04:34;;;;;;;7.32;3.10;;;16.10;99.90;;;;;;6252048;22;20022;-84
2022/07/02 07:07:02;;;;;;;8.32;3.00;;;16.10;99.90;;;;;;6279036;22;20007;-84
2022/07/02 07:09:28;;;;;;;9.02;3.53;;;16.10;99.90;;;;;;6253190;22;20079;-86
2022/07/02 07:11:55;;;;;;;9.18;3.55;;;16.20;99.90;;;;;;6279694;22;20008;-84
2022/07/02 07:14:21;;;;;;;8.05;2.88;;;16.30;99.90;;;;;;6252296;22;20004;-86
2022/07/02 07:16:47;;;;;;;7.90;3.28;;;16.30;99.90;;;;;;6279455;22;20007;-87
2022/07/02 07:19:13;;;;;;;13.18;3.28;;;16.30;99.90;;;;;;6252180;22;20065;-83
2022/07/02 07:21:41;;;;;;;10.82;3.25;;;16.40;99.90;;;;;;6251327;22;20022;-85
2022/07/02 07:24:07;;;;;;;8.70;3.30;;;16.40;99.90;;;;;;6253848;22;20022;-84
2022/07/02 07:26:34;;;;;;;11.32;3.45;;;16.50;99.90;;;;;;6253347;22;20454;-87
2022/07/02 07:29:00;;;;;;;10.02;3.88;;;16.50;99.90;;;;;;6283265;22;20063;-85
2022/07/02 07:31:26;;;;;;;8.02;3.17;;;16.60;99.90;;;;;;6283643;22;20052;-83
2022/07/02 07:33:54;;;;;;;9.10;3.10;;;16.60;99.90;;;;;;6257142;22;20437;-86
2022/07/02 07:36:21;;;;;;;9.55;3.33;;;16.70;99.90;;;;;;6282089;22;20083;-81
2022/07/02 07:38:49;;;;;;;6.47;2.90;;;16.70;99.90;;;;;;6229665;22;20046;-85
2022/07/02 07:41:15;;;;;;;6.60;3.40;;;16.80;99.90;;;;;;6255271;22;20011;-83
2022/07/02 07:43:41;;;;;;;5.93;2.80;;;16.90;99.90;;;;;;6254739;22;20022;-85
2022/07/02 07:46:06;;;;;;;7.43;2.90;;;16.90;99.90;;;;;;6253779;22;20047;-86
2022/07/02 07:48:32;;;;;;;10.57;3.38;;;17.00;99.90;;;;;;6256467;22;20012;-87
2022/07/02 07:50:59;;;;;;;7.97;3.47;;;17.00;99.90;;;;;;6229836;22;20337;-86
2022/07/02 07:53:25;;;;;;;8.48;2.60;;;17.00;99.90;;;;;;6255626;22;20467;-86
2022/07/02 07:55:50;;;;;;;10.15;2.80;;;17.10;99.90;;;;;;6256438;22;20012;-87
2022/07/02 07:58:16;;;;;;;5.85;3.05;;;17.10;99.90;;;;;;6283791;22;20011;-87
2022/07/02 08:00:42;;;;;;;9.50;3.08;;;17.20;99.90;;;;;;6282502;22;20346;-85
2022/07/02 08:03:08;;;;;;;5.13;2.35;;;17.20;99.90;;;;;;6283136;22;20042;-84
2022/07/02 08:05:34;;;;;;;6.05;2.38;;;17.30;99.90;;;;;;6280878;22;20059;-87
2022/07/02 08:07:59;;;;;;;6.00;2.10;;;17.40;99.90;;;;;;6256411;22;20046;-84
2022/07/02 08:10:26;;;;;;;4.72;2.20;;;17.40;99.90;;;;;;6282060;22;20015;-87
2022/07/02 08:12:52;;;;;;;5.38;1.90;;;17.40;99.90;;;;;;6282066;22;20008;-88
2022/07/02 08:15:18;;;;;;;6.13;1.88;;;17.50;99.90;;;;;;6256960;22;20011;-84
2022/07/02 08:17:43;;;;;;;6.63;2.30;;;17.50;99.90;;;;;;6232590;22;20012;-87
2022/07/02 08:20:10;;;;;;;7.53;2.10;;;17.60;99.90;;;;;;6255931;22;20011;-87
2022/07/02 08:22:36;;;;;;;4.40;1.70;;;17.60;99.90;;;;;;6285808;22;20038;-85
2022/07/02 08:25:04;;;;;;;6.03;2.00;;;17.70;99.90;;;;;;6255066;22;20467;-87
2022/07/02 08:27:30;;;;;;;4.72;1.55;;;17.80;99.90;;;;;;6230212;22;20450;-87
2022/07/02 08:29:56;;;;;;;4.72;1.83;;;17.90;99.90;;;;;;6280719;22;20008;-78
2022/07/02 08:32:21;;;;;;;4.75;1.50;;;17.90;99.90;;;;;;6283085;22;20012;-86
2022/07/02 08:34:47;;;;;;;4.82;1.40;;;18.10;99.90;;;;;;6230827;22;20015;-85
2022/07/02 08:37:14;;;;;;;4.38;1.20;;;18.20;99.90;;;;;;6283423;22;20018;-85
2022/07/02 08:39:39;;;;;;;7.13;1.52;;;18.20;99.90;;;;;;6254282;22;20061;-87
2022/07/02 08:42:06;;;;;;;3.83;1.20;;;18.30;99.90;;;;;;6230079;22;20019;-86
2022/07/02 08:44:32;;;;;;;4.47;1.13;;;18.40;99.90;;;;;;6281045;22;20046;-82
2022/07/02 08:46:59;;;;;;;2.72;0.75;;;18.50;99.90;;;;;;6255949;22;20405;-87
2022/07/02 08:49:30;;;;;;;2.20;0.88;;;18.50;99.90;;;;;;6280854;22;20016;-85
2022/07/02 08:54:27;;;;;;;5.35;1.42;;;18.60;99.90;;;;;;6252611;22;20016;-87
2022/07/02 08:56:54;;;;;;;4.15;0.80;;;18.70;99.90;;;;;;6279842;22;20012;-86
2022/07/02 08:59:20;;;;;;;1.83;0.80;;;18.90;99.90;;;;;;6253467;22;20521;-86
2022/07/02 09:01:47;;;;;;;2.35;0.65;;;18.90;99.90;;;;;;6266831;22;20011;-87
2022/07/02 09:04:15;;;;;;;1.65;0.57;;;19.00;99.90;;;;;;6252960;22;20134;-84
2022/07/02 09:06:42;;;;;;;2.30;0.70;;;19.00;99.90;;;;;;6279357;22;20011;-87
2022/07/02 09:09:09;;;;;;;2.88;0.80;;;19.20;99.90;;;;;;6280259;22;20012;-87
2022/07/02 09:11:35;;;;;;;2.42;0.70;;;19.20;99.90;;;;;;6279486;22;20091;-83
2022/07/02 09:14:01;;;;;;;2.97;1.00;;;19.30;99.90;;;;;;6278693;22;20012;-84
2022/07/02 09:16:27;;;;;;;2.95;0.80;;;19.40;99.90;;;;;;6279328;22;20016;-86
2022/07/02 09:18:54;;;;;;;2.70;0.80;;;19.30;99.90;;;;;;6280845;22;20042;-87
2022/07/02 09:21:20;;;;;;;3.55;0.68;;;19.50;99.90;;;;;;6279133;22;20011;-84
2022/07/02 09:23:52;;;;;;;2.28;0.50;;;19.50;99.90;;;;;;6277956;22;20018;-88
2022/07/02 09:26:22;;;;;;;2.05;0.70;;;19.70;99.90;;;;;;6279777;22;20103;-83
2022/07/02 09:28:56;;;;;;;1.73;0.63;;;19.70;99.90;;;;;;6278999;22;20106;-83
2022/07/02 09:31:22;;;;;;;2.55;0.63;;;19.70;99.90;;;;;;6278644;22;20008;-84
2022/07/02 09:33:48;;;;;;;2.08;0.50;;;19.70;99.90;;;;;;6279147;22;20035;-86
2022/07/02 09:36:14;;;;;;;3.22;0.70;;;19.70;99.90;;;;;;6280043;22;20011;-85
2022/07/02 09:38:49;;;;;;;2.13;0.70;;;19.70;99.90;;;;;;6279238;22;20011;-84
2022/07/02 09:41:20;;;;;;;3.05;0.75;;;19.80;99.90;;;;;;6281173;22;20091;-87
2022/07/02 09:43:52;;;;;;;2.55;0.60;;;19.90;99.90;;;;;;6283429;22;20078;-81
2022/07/02 09:46:19;;;;;;;1.77;0.63;;;20.20;99.90;;;;;;6279603;22;20061;-84
2022/07/02 09:48:46;;;;;;;2.50;0.70;;;20.40;99.90;;;;;;6276518;22;20476;-85
2022/07/02 09:51:13;;;;;;;0.82;0.50;;;20.50;99.90;;;;;;6278340;22;20018;-84
2022/07/02 09:53:47;;;;;;;3.28;0.80;;;20.40;99.90;;;;;;6279772;22;20008;-85
2022/07/02 09:56:13;;;;;;;1.47;0.57;;;20.30;99.90;;;;;;6278963;22;20022;-89
2022/07/02 09:58:38;;;;;;;2.58;0.70;;;20.30;99.90;;;;;;6255146;22;20039;-86
2022/07/02 10:01:04;;;;;;;1.98;0.55;;;20.30;99.90;;;;;;6276814;22;20023;-83
2022/07/02 10:03:30;;;;;;;2.75;0.90;;;20.30;99.90;;;;;;6277144;22;20449;-84
2022/07/02 10:05:56;;;;;;;1.80;0.50;;;20.30;99.90;;;;;;6280166;22;20016;-86
2022/07/02 10:08:22;;;;;;;3.28;0.60;;;20.40;99.90;;;;;;6280989;22;20015;-85
2022/07/02 10:10:51;;;;;;;3.17;0.80;;;20.40;99.90;;;;;;6280858;22;20039;-82
2022/07/02 10:13:18;;;;;;;2.13;0.70;;;20.50;99.90;;;;;;6280952;22;20368;-88
2022/07/02 10:16:02;;;;;;;3.90;1.27;;;20.60;99.90;;;;;;6281533;22;20053;-85
2022/07/02 10:18:32;;;;;;;1.25;0.50;;;20.60;99.90;;;;;;6276735;22;20088;-85
2022/07/02 10:20:59;;;;;;;2.03;0.70;;;20.80;99.90;;;;;;6251788;22;20023;-84
2022/07/02 10:23:26;;;;;;;2.17;0.40;;;21.00;99.90;;;;;;6277249;22;20018;-87
2022/07/02 10:25:53;;;;;;;1.98;0.50;;;21.00;99.90;;;;;;6277485;22;20030;-86
2022/07/02 10:28:18;;;;;;;3.15;0.85;;;20.90;98.90;;;;;;6278634;22;20425;-85
2022/07/02 10:30:44;;;;;;;2.38;0.60;;;21.10;99.90;;;;;;6278343;22;20016;-85
2022/07/02 10:33:28;;;;;;;2.83;0.85;;;21.20;99.90;;;;;;6280154;22;20022;-86
2022/07/02 10:35:57;;;;;;;1.65;0.60;;;21.40;99.90;;;;;;6278298;22;20061;-85
2022/07/02 10:38:32;;;;;;;1.20;0.40;;;21.50;99.60;;;;;;6277667;22;20019;-85
2022/07/02 10:40:58;;;;;;;2.38;0.60;;;21.60;96.40;;;;;;6277680;22;20011;-85
2022/07/02 10:43:26;;;;;;;3.28;0.50;;;21.60;97.90;;;;;;6277872;22;20442;-86
2022/07/02 10:46:16;;;;;;;2.80;0.80;;;21.50;98.50;;;;;;6278823;22;20008;-85
2022/07/02 10:48:50;;;;;;;2.83;0.65;;;21.70;97.70;;;;;;6253104;22;20441;-86
2022/07/02 10:51:20;;;;;;;2.30;0.95;;;21.60;99.00;;;;;;6278122;22;20030;-83
2022/07/02 10:54:06;;;;;;;3.70;0.50;;;21.70;97.00;;;;;;6277587;22;20019;-85
2022/07/02 10:56:49;;;;;;;4.00;0.70;;;21.60;96.00;;;;;;6277731;22;20008;-86
2022/07/02 10:59:44;;;;;;;1.10;0.60;;;21.40;97.20;;;;;;6278035;22;20024;-86
2022/07/02 11:02:14;;;;;;;2.70;0.70;;;21.50;95.10;;;;;;6266089;22;20310;-83
2022/07/02 11:04:40;;;;;;;3.08;0.57;;;21.50;94.50;;;;;;6277527;22;20087;-86
2022/07/02 11:07:11;;;;;;;2.20;0.57;;;21.40;97.70;;;;;;6254861;22;20020;-86
2022/07/02 11:09:58;;;;;;;1.88;0.70;;;21.50;96.00;;;;;;6285862;22;20034;-85
2022/07/02 11:12:42;;;;;;;0.70;0.40;;;21.20;93.50;;;;;;6286897;22;20087;-87
2022/07/02 11:15:27;;;;;;;1.83;0.52;;;21.20;95.70;;;;;;6280895;22;20315;-82
2022/07/02 11:17:57;;;;;;;1.33;0.43;;;21.10;96.30;;;;;;6263476;22;20441;-79
2022/07/02 11:20:26;;;;;;;2.88;0.60;;;21.30;97.30;;;;;;6298477;22;20023;-82
2022/07/02 11:22:52;;;;;;;1.75;0.55;;;21.40;95.70;;;;;;6299229;22;20050;-84
2022/07/02 11:25:18;;;;;;;2.85;0.70;;;21.60;99.50;;;;;;6263975;22;20018;-83
2022/07/02 11:27:55;;;;;;;3.40;0.70;;;21.80;93.80;;;;;;6284733;22;20012;-85
2022/07/02 11:30:28;;;;;;;3.50;0.70;;;21.90;85.60;;;;;;6281095;22;20011;-87
2022/07/02 11:32:54;;;;;;;1.38;0.50;;;22.00;91.30;;;;;;6282525;22;20083;-85
2022/07/02 11:35:20;;;;;;;2.15;0.63;;;22.00;95.50;;;;;;6278883;22;20012;-84
2022/07/02 11:37:46;;;;;;;0.95;0.50;;;22.10;94.70;;;;;;6280676;22;20363;-86
2022/07/02 11:40:21;;;;;;;1.95;0.50;;;22.30;95.10;;;;;;6280546;22;20019;-85
2022/07/02 11:42:47;;;;;;;3.97;0.70;;;22.70;93.10;;;;;;6280990;22;20047;-87
2022/07/02 11:45:13;;;;;;;2.50;0.63;;;22.70;92.90;;;;;;6277816;22;20323;-87
2022/07/02 11:47:49;;;;;;;2.22;0.60;;;22.60;87.30;;;;;;6282669;22;20011;-88
2022/07/02 11:50:31;;;;;;;1.92;0.75;;;22.60;90.60;;;;;;6253231;22;20078;-85
2022/07/02 11:52:58;;;;;;;3.20;0.80;;;22.70;84.70;;;;;;6257411;22;20046;-86
2022/07/02 11:55:24;;;;;;;2.13;0.60;;;22.70;88.60;;;;;;6279642;22;20446;-85
2022/07/02 11:57:51;;;;;;;2.80;0.70;;;22.80;81.60;;;;;;6252798;22;20023;-85
2022/07/02 12:00:18;;;;;;;1.70;0.63;;;22.70;82.80;;;;;;6276771;22;20019;-86
2022/07/02 12:02:43;;;;;;;2.53;0.60;;;22.50;85.60;;;;;;6226072;22;20016;-85
2022/07/02 12:05:14;;;;;;;2.35;0.70;;;22.70;91.10;;;;;;6251486;22;20086;-85
2022/07/02 12:07:47;;;;;;;1.70;0.55;;;22.80;91.80;;;;;;6226136;22;20341;-84
2022/07/02 12:10:14;;;;;;;2.83;0.70;;;22.90;93.00;;;;;;6279311;22;20008;-84
2022/07/02 12:12:40;;;;;;;3.97;1.05;;;22.70;84.60;;;;;;6279336;22;20007;-84
2022/07/02 12:15:07;;;;;;;2.65;0.65;;;22.50;81.10;;;;;;6277800;22;20011;-83
2022/07/02 12:17:36;;;;;;;2.15;0.60;;;22.50;86.20;;;;;;6278940;22;20018;-85
2022/07/02 12:20:06;;;;;;;1.13;0.40;;;22.50;89.80;;;;;;6228553;22;20019;-84
2022/07/02 12:22:34;;;;;;;3.15;0.70;;;22.60;90.40;;;;;;6278911;22;20016;-84
2022/07/02 12:25:01;;;;;;;3.95;0.47;;;22.50;90.00;;;;;;6254330;22;20046;-83
2022/07/02 12:27:27;;;;;;;2.10;0.60;;;22.50;92.50;;;;;;6252902;22;20022;-83
2022/07/02 12:29:53;;;;;;;2.10;0.50;;;22.20;90.80;;;;;;6280108;22;20035;-85
2022/07/02 12:32:32;;;;;;;1.88;0.60;;;22.10;94.20;;;;;;6282918;22;20008;-88
2022/07/02 12:35:00;;;;;;;1.58;0.50;;;22.10;97.50;;;;;;6256122;22;20083;-83
2022/07/02 12:37:27;;;;;;;2.88;0.80;;;22.20;93.80;;;;;;6257134;22;20012;-87
2022/07/02 12:40:06;;;;;;;1.48;0.50;;;22.50;95.00;;;;;;6286656;22;20012;-83
2022/07/02 12:42:35;;;;;;;2.72;0.75;;;22.60;89.40;;;;;;6285263;22;20083;-88
2022/07/02 12:45:07;;;;;;;3.08;0.60;;;22.70;87.70;;;;;;6286057;22;20015;-84
2022/07/02 12:47:36;;;;;;;2.28;0.65;;;22.60;87.70;;;;;;6284675;22;20012;-85
2022/07/02 12:50:14;;;;;;;1.13;0.50;;;22.90;92.90;;;;;;6231640;22;20069;-85
2022/07/02 12:53:04;;;;;;;2.38;0.60;;;23.10;79.70;;;;;;6233054;22;20022;-83
2022/07/02 12:55:42;;;;;;;1.75;0.52;;;23.00;85.90;;;;;;6251832;22;20011;-87
2022/07/02 12:58:16;;;;;;;1.95;0.60;;;22.80;88.10;;;;;;6287058;22;20016;-86
2022/07/02 13:00:45;;;;;;;2.75;0.60;;;22.60;84.50;;;;;;6286365;22;20016;-84
2022/07/02 13:03:14;;;;;;;2.35;0.80;;;22.40;89.20;;;;;;6260809;22;20023;-87
2022/07/02 13:05:50;;;;;;;1.85;0.60;;;22.30;91.20;;;;;;6260433;22;20331;-86
2022/07/02 13:08:17;;;;;;;2.15;0.70;;;22.30;93.10;;;;;;6258524;22;20032;-86
2022/07/02 13:10:46;;;;;;;3.22;0.70;;;22.40;92.70;;;;;;6286933;22;20008;-84
2022/07/02 13:13:13;;;;;;;1.67;0.57;;;22.50;94.00;;;;;;6233949;22;20295;-85
2022/07/02 13:15:39;;;;;;;2.08;0.60;;;22.60;97.70;;;;;;6286908;22;20031;-86
2022/07/02 13:18:05;;;;;;;2.22;0.60;;;22.80;94.00;;;;;;6259652;22;20173;-87
2022/07/02 13:20:31;;;;;;;1.92;0.55;;;22.90;93.10;;;;;;6285093;22;20012;-87
2022/07/02 13:22:58;;;;;;;2.58;0.57;;;22.90;94.40;;;;;;6257671;22;20369;-90
2022/07/02 13:25:23;;;;;;;2.42;0.70;;;22.90;93.90;;;;;;6235422;22;20018;-89
2022/07/02 13:27:50;;;;;;;2.08;0.85;;;22.90;94.00;;;;;;6258315;22;20439;-86
2022/07/02 13:30:17;;;;;;;1.58;0.60;;;22.70;93.30;;;;;;6258365;22;20023;-86
2022/07/02 13:32:46;;;;;;;2.45;0.50;;;22.80;97.30;;;;;;6257427;22;20008;-88
2022/07/02 13:35:12;;;;;;;2.72;0.70;;;23.20;98.30;;;;;;6286568;22;20034;-89
2022/07/02 13:37:47;;;;;;;3.53;0.85;;;23.30;96.60;;;;;;6287483;22;20023;-89
2022/07/02 13:40:13;;;;;;;;;;;23.30;93.10;;;;;;6264471;22;20012;-87
2022/07/02 13:42:39;;;;;;;2.75;0.70;;;23.40;96.40;;;;;;6290228;22;19915;-86
2022/07/02 13:45:07;;;;;;;1.60;0.60;;;23.30;91.20;;;;;;6264437;22;20039;-85
2022/07/02 13:47:33;;;;;;;3.65;0.70;;;23.10;91.50;;;;;;6238279;22;20027;-87
2022/07/02 13:49:59;;;;;;;1.90;0.52;;;23.00;93.20;;;;;;6259321;22;20012;-87
2022/07/02 13:52:24;;;;;;;2.83;0.88;;;23.00;92.30;;;;;;6259327;22;20338;-86
2022/07/02 13:54:50;;;;;;;3.53;0.85;;;22.90;90.00;;;;;;6288389;22;20012;-86
2022/07/02 13:57:17;;;;;;;2.47;0.80;;;22.90;93.60;;;;;;6235292;22;20011;-85
2022/07/02 13:59:44;;;;;;;1.25;0.50;;;22.80;94.00;;;;;;6259894;22;20063;-87
2022/07/02 14:02:10;;;;;;;2.05;0.70;;;22.70;95.10;;;;;;6279555;22;20018;-84
2022/07/02 14:04:36;;;;;;;3.25;1.08;;;22.90;96.50;;;;;;6284912;22;20068;-83
2022/07/02 14:07:02;;;;;;;3.08;0.73;;;23.10;95.20;;;;;;6286343;22;20011;-87
2022/07/02 14:09:31;;;;;;;2.72;0.70;;;23.10;93.30;;;;;;6286212;22;20008;-84
2022/07/02 14:11:57;;;;;;;3.72;0.85;;;23.00;88.80;;;;;;6260179;22;20004;-85
2022/07/02 14:14:24;;;;;;;2.80;0.70;;;22.80;94.80;;;;;;6283681;22;20039;-85
2022/07/02 14:16:49;;;;;;;2.65;0.70;;;22.70;95.90;;;;;;6258851;22;20016;-87
2022/07/02 14:19:16;;;;;;;3.70;0.70;;;22.70;93.60;;;;;;6285928;22;20076;-84
2022/07/02 14:21:42;;;;;;;2.40;0.73;;;22.60;95.10;;;;;;6258358;22;20020;-88
2022/07/02 14:24:07;;;;;;;4.63;0.90;;;22.80;95.70;;;;;;6286211;22;20057;-86
2022/07/02 14:26:33;;;;;;;4.13;1.00;;;23.10;97.20;;;;;;6260272;22;20090;-86
2022/07/02 14:28:59;;;;;;;3.17;0.50;;;23.30;97.80;;;;;;6286879;22;20007;-85
2022/07/02 14:31:24;;;;;;;2.70;0.70;;;23.40;98.10;;;;;;6259383;22;20055;-89
2022/07/02 14:33:50;;;;;;;2.72;0.80;;;23.30;97.50;;;;;;6260856;22;20008;-90
2022/07/02 14:36:16;;;;;;;6.07;1.02;;;23.00;95.50;;;;;;6286696;22;20019;-87
2022/07/02 14:38:42;;;;;;;3.33;0.82;;;22.90;97.50;;;;;;6285773;22;20337;-86
2022/07/02 14:43:52;;;;;;;3.70;0.80;;;22.70;99.90;;;;;;6283564;22;20048;-85
2022/07/02 14:46:35;;;;;;;2.58;1.00;;;22.50;98.10;;;;;;6284416;22;20050;-83
2022/07/02 14:49:01;;;;;;;5.15;0.85;;;22.60;98.50;;;;;;6284202;22;20521;-90
2022/07/02 14:51:28;;;;;;;3.00;1.10;;;22.80;97.50;;;;;;6259046;22;20016;-87
2022/07/02 14:53:54;;;;;;;3.17;1.00;;;22.90;98.30;;;;;;6258726;22;20376;-88
2022/07/02 14:56:20;;;;;;;3.90;1.75;;;22.90;96.90;;;;;;6283871;22;20091;-87
2022/07/02 14:58:46;;;;;;;4.05;1.00;;;22.90;97.20;;;;;;6258600;22;20016;-87
2022/07/02 15:01:12;;;;;;;1.35;0.70;;;22.80;96.20;;;;;;6257683;22;20018;-83
2022/07/02 15:03:38;;;;;;;3.45;1.15;;;22.60;98.20;;;;;;6285172;22;20039;-86
2022/07/02 15:06:04;;;;;;;2.20;0.85;;;22.50;98.70;;;;;;6284590;22;20008;-87
2022/07/02 15:08:30;;;;;;;3.65;0.90;;;22.40;99.90;;;;;;6284647;22;20035;-87
2022/07/02 15:10:56;;;;;;;3.17;0.80;;;22.40;99.90;;;;;;6280769;22;20012;-88
2022/07/02 15:13:21;;;;;;;5.25;1.10;;;22.20;99.90;;;;;;6282223;22;20012;-86
2022/07/02 15:15:59;;;;;;;3.20;0.85;;;22.20;99.90;;;;;;6283262;22;20018;-87
2022/07/02 15:18:32;;;;;;;2.28;0.77;;;22.30;99.90;;;;;;6253898;22;20015;-85
2022/07/02 15:20:58;;;;;;;9.45;1.67;;;22.30;99.90;;;;;;6282417;22;20045;-85
2022/07/02 15:23:24;;;;;;;3.03;0.93;;;22.30;99.90;;;;;;6284035;22;20035;-87
2022/07/02 15:25:51;;;;;;;2.50;1.00;;;22.50;99.90;;;;;;6258594;22;20015;-87
2022/07/02 15:28:28;;;;;;;4.55;0.95;;;22.70;99.90;;;;;;6257518;22;20026;-86
2022/07/02 15:30:55;;;;;;;2.60;0.88;;;22.80;99.90;;;;;;6282412;22;20019;-86
2022/07/02 15:33:29;;;;;;;3.70;0.80;;;23.00;99.90;;;;;;6257931;22;20035;-87
2022/07/02 15:35:55;;;;;;;4.25;1.13;;;23.10;94.90;;;;;;6259123;22;20022;-88
2022/07/02 15:38:25;;;;;;;3.17;1.10;;;23.10;98.60;;;;;;6279352;22;20007;-85
2022/07/02 15:40:55;;;;;;;4.18;0.80;;;23.10;97.70;;;;;;6255168;22;20016;-86
2022/07/02 15:43:20;;;;;;;3.78;1.00;;;22.90;98.30;;;;;;6278230;22;20043;-84
2022/07/02 15:45:47;;;;;;;4.32;1.40;;;22.90;99.90;;;;;;6278362;22;20441;-85
2022/07/02 15:48:13;;;;;;;4.65;1.00;;;22.80;99.90;;;;;;6275895;22;20043;-84
2022/07/02 15:50:41;;;;;;;3.85;1.17;;;22.80;99.90;;;;;;6275703;22;20057;-84
2022/07/02 15:53:10;;;;;;;3.22;0.70;;;22.70;99.90;;;;;;6278811;22;20011;-83
2022/07/02 15:55:42;;;;;;;2.75;0.70;;;22.60;99.90;;;;;;6279907;22;20011;-85
2022/07/02 15:58:26;;;;;;;2.53;0.88;;;22.50;99.90;;;;;;6279576;22;20016;-84
2022/07/02 16:00:54;;;;;;;2.67;0.80;;;22.50;99.90;;;;;;6253561;22;20438;-83
2022/07/02 16:03:25;;;;;;;4.97;1.60;;;22.40;99.90;;;;;;6277541;22;20031;-84
2022/07/02 16:05:51;;;;;;;4.47;1.35;;;22.50;99.90;;;;;;6281279;22;20047;-86
2022/07/02 16:08:18;;;;;;;4.03;1.50;;;22.50;99.90;;;;;;6278558;22;20338;-84
2022/07/02 16:10:43;;;;;;;3.55;1.08;;;22.70;99.90;;;;;;6278177;22;20026;-85
2022/07/02 16:13:09;;;;;;;3.63;0.80;;;22.70;99.90;;;;;;6278839;22;20011;-85
2022/07/02 16:15:35;;;;;;;3.90;0.80;;;22.70;99.90;;;;;;6277726;22;20003;-82
2022/07/02 16:18:02;;;;;;;7.63;0.90;;;22.70;99.90;;;;;;6279405;22;20016;-84
2022/07/02 16:20:29;;;;;;;3.15;0.90;;;22.70;99.90;;;;;;6280218;22;20007;-85
2022/07/02 16:22:55;;;;;;;3.42;1.00;;;22.60;99.90;;;;;;6278231;22;20020;-83
2022/07/02 16:25:22;;;;;;;2.42;0.80;;;22.50;99.90;;;;;;6278044;22;20020;-84
2022/07/02 16:27:48;;;;;;;4.35;1.15;;;22.40;99.90;;;;;;6277603;22;20016;-84
2022/07/02 16:30:14;;;;;;;2.97;1.25;;;22.40;99.90;;;;;;6278251;22;20457;-86
2022/07/02 16:32:59;;;;;;;3.30;0.80;;;22.40;99.90;;;;;;6252434;22;20008;-84
2022/07/02 16:35:31;;;;;;;6.47;1.02;;;22.50;99.90;;;;;;6280672;22;20315;-86
2022/07/02 16:38:00;;;;;;;2.22;0.90;;;22.80;99.90;;;;;;6277938;22;20090;-85
2022/07/02 16:40:27;;;;;;;5.85;0.90;;;23.10;99.90;;;;;;6280391;22;20023;-86
2022/07/02 16:42:54;;;;;;;4.05;1.25;;;23.20;99.90;;;;;;6278080;22;20457;-82
2022/07/02 16:45:20;;;;;;;3.72;0.95;;;23.20;99.90;;;;;;6277321;22;20023;-82
2022/07/02 16:47:47;;;;;;;3.78;0.90;;;23.20;99.90;;;;;;6279299;22;20016;-86
2022/07/02 16:50:18;;;;;;;4.15;1.10;;;23.20;99.90;;;;;;6277775;22;20011;-84
2022/07/02 16:52:57;;;;;;;4.28;1.05;;;23.10;99.90;;;;;;6253267;22;20042;-86
2022/07/02 16:55:25;;;;;;;2.90;1.10;;;23.10;99.90;;;;;;6251892;22;20537;-87
2022/07/02 16:57:51;;;;;;;2.83;0.95;;;23.00;99.90;;;;;;6277529;22;20022;-81